createdAt,value
2018-12-03T00:01:10.365Z,59.43
2018-12-03T00:03:37.237Z,48.97
2018-12-03T00:06:04.695Z,53.20
2018-12-03T00:08:31.549Z,54.53
2018-12-03T00:10:58.310Z,49.77
2018-12-03T00:13:25.941Z,53.63
2018-12-03T00:15:52.729Z,52.30
2018-12-03T00:18:19.655Z,53.80
2018-12-03T00:20:46.787Z,53.73
2018-12-03T00:23:13.494Z,48.43
2018-12-03T00:25:40.262Z,54.90
2018-12-03T00:28:06.975Z,49.63
2018-12-03T00:30:33.655Z,53.70
2018-12-03T00:33:00.404Z,55.90
2018-12-03T00:35:27.114Z,61.27
2018-12-03T00:37:53.819Z,54.43
2018-12-03T00:40:20.590Z,53.50
2018-12-03T00:42:47.564Z,52.30
2018-12-03T00:45:14.337Z,50.07
2018-12-03T00:47:41.876Z,45.63
2018-12-03T00:50:09.357Z,54.53
2018-12-03T00:52:36.887Z,48.17
2018-12-03T00:55:03.704Z,50.77
2018-12-03T00:57:30.390Z,51.23
2018-12-03T00:59:57.829Z,47.00
2018-12-03T01:02:24.679Z,41.70
2018-12-03T01:04:51.472Z,43.60
2018-12-03T01:07:18.158Z,45.73
2018-12-03T01:09:44.939Z,45.10
2018-12-03T01:12:11.705Z,47.87
2018-12-03T01:14:38.406Z,44.83
2018-12-03T01:17:05.206Z,49.03
2018-12-03T01:19:31.950Z,46.50
2018-12-03T01:21:58.763Z,42.63
2018-12-03T01:24:25.467Z,48.03
2018-12-03T01:26:52.215Z,41.33
2018-12-03T01:29:19.195Z,48.00
2018-12-03T01:31:46.679Z,49.93
2018-12-03T01:34:13.547Z,45.00
2018-12-03T01:36:40.361Z,42.23
2018-12-03T01:39:07.478Z,42.23
2018-12-03T01:41:34.203Z,45.27
2018-12-03T01:44:00.997Z,42.87
2018-12-03T01:46:27.712Z,37.70
2018-12-03T01:48:54.411Z,41.57
2018-12-03T01:51:21.155Z,39.03
2018-12-03T01:53:48.577Z,39.87
2018-12-03T01:56:16.051Z,38.17
2018-12-03T01:58:43.910Z,36.53
2018-12-03T02:01:11.779Z,38.47
2018-12-03T02:03:38.524Z,35.03
2018-12-03T02:06:06.029Z,34.40
2018-12-03T02:08:32.755Z,35.17
2018-12-03T02:10:59.495Z,34.10
2018-12-03T02:13:26.262Z,30.43
2018-12-03T02:15:53.013Z,34.47
2018-12-03T02:18:19.795Z,33.40
2018-12-03T02:20:47.037Z,30.23
2018-12-03T02:23:14.566Z,33.30
2018-12-03T02:25:41.800Z,29.23
2018-12-03T02:28:08.545Z,29.23
2018-12-03T02:30:35.241Z,32.60
2018-12-03T02:33:01.989Z,31.23
2018-12-03T02:35:28.698Z,25.83
2018-12-03T02:37:56.163Z,27.63
2018-12-03T02:40:24.472Z,27.47
2018-12-03T02:42:51.175Z,31.53
2018-12-03T02:45:18.643Z,29.43
2018-12-03T02:47:46.102Z,25.67
2018-12-03T02:50:13.546Z,25.40
2018-12-03T02:52:41.165Z,26.10
2018-12-03T02:55:07.896Z,25.40
2018-12-03T02:57:34.628Z,26.20
2018-12-03T03:00:01.516Z,24.10
2018-12-03T03:02:28.319Z,24.27
2018-12-03T03:04:55.044Z,25.63
2018-12-03T03:07:21.789Z,25.80
2018-12-03T03:09:48.499Z,26.40
2018-12-03T03:12:15.247Z,24.97
2018-12-03T03:14:42.785Z,21.20
2018-12-03T03:17:09.482Z,23.27
2018-12-03T03:19:37.441Z,22.80
2018-12-03T03:22:04.555Z,21.97
2018-12-03T03:24:32.005Z,22.17
2018-12-03T03:26:59.494Z,18.73
2018-12-03T03:29:26.347Z,19.63
2018-12-03T03:31:53.068Z,19.80
2018-12-03T03:34:20.488Z,21.03
2018-12-03T03:36:47.239Z,19.67
2018-12-03T03:39:13.985Z,16.07
2018-12-03T03:41:41.435Z,16.10
2018-12-03T03:44:09.213Z,15.50
2018-12-03T03:46:35.973Z,14.77
2018-12-03T03:49:02.673Z,16.13
2018-12-03T03:51:29.475Z,13.90
2018-12-03T03:53:56.214Z,14.10
2018-12-03T03:56:23.120Z,12.83
2018-12-03T03:58:49.898Z,15.03
2018-12-03T04:01:16.591Z,11.30
2018-12-03T04:03:43.394Z,11.87
2018-12-03T04:06:10.103Z,14.87
2018-12-03T04:08:36.865Z,15.40
2018-12-03T04:11:03.644Z,12.17
2018-12-03T04:13:30.374Z,12.53
2018-12-03T04:15:57.126Z,10.43
2018-12-03T04:18:23.861Z,10.13
2018-12-03T04:20:50.583Z,11.23
2018-12-03T04:23:17.312Z,10.00
2018-12-03T04:25:44.048Z,10.73
2018-12-03T04:28:10.751Z,9.93
2018-12-03T04:30:38.500Z,11.40
2018-12-03T04:33:05.273Z,8.90
2018-12-03T04:35:32.508Z,9.50
2018-12-03T04:37:59.338Z,10.83
2018-12-03T04:40:26.783Z,9.87
2018-12-03T04:42:53.474Z,9.00
2018-12-03T04:45:20.257Z,9.40
2018-12-03T04:47:46.948Z,11.27
2018-12-03T04:50:13.641Z,8.53
2018-12-03T04:52:40.695Z,8.50
2018-12-03T04:55:08.205Z,9.73
2018-12-03T04:57:34.988Z,8.27
2018-12-03T05:00:01.859Z,8.57
2018-12-03T05:02:29.351Z,8.53
2018-12-03T05:04:56.160Z,8.97
2018-12-03T05:07:23.715Z,7.97
2018-12-03T05:09:50.418Z,8.57
2018-12-03T05:12:17.150Z,8.60
2018-12-03T05:14:43.885Z,7.77
2018-12-03T05:17:10.578Z,7.63
2018-12-03T05:19:37.341Z,7.50
2018-12-03T05:22:04.090Z,7.93
2018-12-03T05:24:30.792Z,7.93
2018-12-03T05:26:57.511Z,7.37
2018-12-03T05:29:24.291Z,7.67
2018-12-03T05:31:51.783Z,6.97
2018-12-03T05:34:18.496Z,6.47
2018-12-03T05:36:45.228Z,6.63
2018-12-03T05:39:11.998Z,5.50
2018-12-03T05:41:38.730Z,6.50
2018-12-03T05:44:05.431Z,6.63
2018-12-03T05:46:32.432Z,6.07
2018-12-03T05:48:59.094Z,6.43
2018-12-03T05:51:25.839Z,6.40
2018-12-03T05:53:52.673Z,6.03
2018-12-03T05:56:19.352Z,6.50
2018-12-03T05:58:46.855Z,6.83
2018-12-03T06:01:13.564Z,6.70
2018-12-03T06:03:40.281Z,6.80
2018-12-03T06:06:07.770Z,6.90
2018-12-03T06:08:34.492Z,6.60
2018-12-03T06:11:01.471Z,8.03
2018-12-03T06:13:28.246Z,7.47
2018-12-03T06:15:54.988Z,7.03
2018-12-03T06:18:21.648Z,6.53
2018-12-03T06:20:48.400Z,7.73
2018-12-03T06:23:15.628Z,6.43
2018-12-03T06:25:43.059Z,7.33
2018-12-03T06:28:10.508Z,7.53
2018-12-03T06:30:37.225Z,7.57
2018-12-03T06:33:04.009Z,6.80
2018-12-03T06:35:30.720Z,7.27
2018-12-03T06:37:57.397Z,6.93
2018-12-03T06:40:24.440Z,7.13
2018-12-03T06:42:51.235Z,7.60
2018-12-03T06:45:18.431Z,7.50
2018-12-03T06:47:45.100Z,7.83
2018-12-03T06:50:12.569Z,8.00
2018-12-03T06:52:39.251Z,7.53
2018-12-03T06:55:06.006Z,7.53
2018-12-03T06:57:32.757Z,7.80
2018-12-03T06:59:59.398Z,7.73
2018-12-03T07:02:26.080Z,6.77
2018-12-03T07:04:52.880Z,7.00
2018-12-03T07:07:19.554Z,7.13
2018-12-03T07:09:46.241Z,7.33
2018-12-03T07:12:13.025Z,6.83
2018-12-03T07:14:40.421Z,7.33
2018-12-03T07:17:07.087Z,7.00
2018-12-03T07:19:33.771Z,6.67
2018-12-03T07:22:00.554Z,7.57
2018-12-03T07:24:27.245Z,8.33
2018-12-03T07:26:54.645Z,7.30
2018-12-03T07:29:21.338Z,8.87
2018-12-03T07:31:48.100Z,8.37
2018-12-03T07:34:14.758Z,7.97
2018-12-03T07:36:41.413Z,8.10
2018-12-03T07:39:08.144Z,8.50
2018-12-03T07:41:34.851Z,9.37
2018-12-03T07:44:01.509Z,8.10
2018-12-03T07:46:28.218Z,8.30
2018-12-03T07:48:54.874Z,7.73
2018-12-03T07:51:21.564Z,7.43
2018-12-03T07:53:48.287Z,8.30
2018-12-03T07:56:14.985Z,7.60
2018-12-03T07:58:41.731Z,8.03
2018-12-03T08:01:08.425Z,7.43
2018-12-03T08:03:35.091Z,7.80
2018-12-03T08:06:01.823Z,6.47
2018-12-03T08:08:28.566Z,7.70
2018-12-03T08:10:55.247Z,8.33
2018-12-03T08:13:21.985Z,7.93
2018-12-03T08:15:48.646Z,8.27
2018-12-03T08:18:15.308Z,8.70
2018-12-03T08:20:44.235Z,8.27
2018-12-03T08:23:11.445Z,9.30
2018-12-03T08:25:38.199Z,8.57
2018-12-03T08:28:05.625Z,9.10
2018-12-03T08:30:33.067Z,9.67
2018-12-03T08:32:59.823Z,9.30
2018-12-03T08:35:26.472Z,8.57
2018-12-03T08:37:53.151Z,8.07
2018-12-03T08:40:19.874Z,9.27
2018-12-03T08:42:46.584Z,8.50
2018-12-03T08:45:13.307Z,9.37
2018-12-03T08:47:40.015Z,9.47
2018-12-03T08:50:06.905Z,8.77
2018-12-03T08:52:33.596Z,8.37
2018-12-03T08:55:01.050Z,9.37
2018-12-03T08:57:27.597Z,9.53
2018-12-03T08:59:54.880Z,9.27
2018-12-03T09:02:21.485Z,9.67
2018-12-03T09:04:48.847Z,8.40
2018-12-03T09:07:16.116Z,15.23
2018-12-03T09:09:42.692Z,9.40
2018-12-03T09:12:09.222Z,9.33
2018-12-03T09:14:35.855Z,9.20
2018-12-03T09:17:02.745Z,9.30
2018-12-03T09:19:29.039Z,8.87
2018-12-03T09:21:55.671Z,8.83
2018-12-03T09:24:22.223Z,9.30
2018-12-03T09:26:48.763Z,7.40
2018-12-03T09:29:15.382Z,7.67
2018-12-03T09:31:41.953Z,8.77
2018-12-03T09:34:09.232Z,9.00
2018-12-03T09:36:35.947Z,8.87
2018-12-03T09:39:03.314Z,8.20
2018-12-03T09:41:30.676Z,8.50
2018-12-03T09:43:57.304Z,9.10
2018-12-03T09:46:23.885Z,8.43
2018-12-03T09:48:50.577Z,9.00
2018-12-03T09:51:17.848Z,8.50
2018-12-03T09:53:44.423Z,8.40
2018-12-03T09:56:11.047Z,8.00
2018-12-03T09:58:37.592Z,7.53
2018-12-03T10:01:04.174Z,7.50
2018-12-03T10:03:31.536Z,7.97
2018-12-03T10:05:58.097Z,8.43
2018-12-03T10:08:24.640Z,7.53
2018-12-03T10:10:51.280Z,7.83
2018-12-03T10:13:17.823Z,7.97
2018-12-03T10:15:44.382Z,7.77
2018-12-03T10:18:10.990Z,7.63
2018-12-03T10:20:42.141Z,7.90
2018-12-03T10:23:05.221Z,7.40
2018-12-03T10:25:32.161Z,7.37
2018-12-03T10:27:58.824Z,6.80
2018-12-03T10:30:25.503Z,6.97
2018-12-03T10:32:52.243Z,7.50
2018-12-03T10:35:18.891Z,6.97
2018-12-03T10:37:45.549Z,7.07
2018-12-03T10:40:12.330Z,6.80
2018-12-03T10:42:39.068Z,6.47
2018-12-03T10:45:05.784Z,7.30
2018-12-03T10:47:33.208Z,6.73
2018-12-03T10:49:59.902Z,6.40
2018-12-03T10:52:26.676Z,6.27
2018-12-03T10:54:53.367Z,5.60
2018-12-03T10:57:20.825Z,5.57
2018-12-03T10:59:48.298Z,5.43
2018-12-03T11:05:26.772Z,5.95
2018-12-03T11:07:53.518Z,4.70
2018-12-03T11:10:20.962Z,5.23
2018-12-03T11:12:47.773Z,5.60
2018-12-03T11:15:14.552Z,4.20
2018-12-03T11:17:41.296Z,4.43
2018-12-03T11:20:08.911Z,4.57
2018-12-03T11:22:35.870Z,4.70
2018-12-03T11:25:02.605Z,4.90
2018-12-03T11:27:29.380Z,5.40
2018-12-03T11:29:56.845Z,4.50
2018-12-03T11:32:23.569Z,4.47
2018-12-03T11:34:50.244Z,4.33
2018-12-03T11:37:16.978Z,5.13
2018-12-03T11:39:43.723Z,4.27
2018-12-03T11:42:10.439Z,4.60
2018-12-03T11:44:37.214Z,4.30
2018-12-03T11:47:03.917Z,4.20
2018-12-03T11:49:30.614Z,4.40
2018-12-03T11:51:57.361Z,4.50
2018-12-03T11:54:24.010Z,4.13
2018-12-03T11:56:50.730Z,4.30
2018-12-03T11:59:18.210Z,4.37
2018-12-03T12:01:44.896Z,4.70
2018-12-03T12:04:11.567Z,3.97
2018-12-03T12:06:38.312Z,4.80
2018-12-03T12:09:05.015Z,4.37
2018-12-03T12:11:31.691Z,4.20
2018-12-03T12:13:58.491Z,4.10
2018-12-03T12:16:25.172Z,4.33
2018-12-03T12:18:51.830Z,4.40
2018-12-03T12:21:18.579Z,4.80
2018-12-03T12:23:45.219Z,3.90
2018-12-03T12:26:11.926Z,4.20
2018-12-03T12:28:38.801Z,4.70
2018-12-03T12:31:05.504Z,4.13
2018-12-03T12:33:32.916Z,4.17
2018-12-03T12:35:59.597Z,4.10
2018-12-03T12:38:26.991Z,4.17
2018-12-03T12:40:53.719Z,3.83
2018-12-03T12:43:20.470Z,4.27
2018-12-03T12:45:47.208Z,4.30
2018-12-03T12:48:13.897Z,4.33
2018-12-03T12:50:41.359Z,4.20
2018-12-03T12:53:08.045Z,4.10
2018-12-03T12:55:34.732Z,3.83
2018-12-03T12:58:01.474Z,3.83
2018-12-03T13:00:28.909Z,4.23
2018-12-03T13:02:55.601Z,4.20
2018-12-03T13:05:22.455Z,4.20
2018-12-03T13:07:49.120Z,4.57
2018-12-03T13:10:15.848Z,4.53
2018-12-03T13:12:42.546Z,5.37
2018-12-03T13:15:10.027Z,4.07
2018-12-03T13:17:36.793Z,4.30
2018-12-03T13:20:03.515Z,4.53
2018-12-03T13:22:30.366Z,4.27
2018-12-03T13:24:57.760Z,4.47
2018-12-03T13:27:25.163Z,4.87
2018-12-03T13:29:51.857Z,4.23
2018-12-03T13:32:19.336Z,4.53
2018-12-03T13:34:46.730Z,4.73
2018-12-03T13:37:13.404Z,5.47
2018-12-03T13:39:40.140Z,5.03
2018-12-03T13:42:06.844Z,5.03
2018-12-03T13:44:33.480Z,4.33
2018-12-03T13:47:00.249Z,5.23
2018-12-03T13:49:26.931Z,5.43
2018-12-03T13:51:54.314Z,5.57
2018-12-03T13:54:21.115Z,5.47
2018-12-03T13:56:48.557Z,5.30
2018-12-03T13:59:15.752Z,5.73
2018-12-03T14:01:42.524Z,5.57
2018-12-03T14:04:10.067Z,5.63
2018-12-03T14:06:36.770Z,5.40
2018-12-03T14:09:04.301Z,5.50
2018-12-03T14:11:31.094Z,5.70
2018-12-03T14:13:57.859Z,5.73
2018-12-03T14:16:24.549Z,5.93
2018-12-03T14:18:52.003Z,5.13
2018-12-03T14:21:19.474Z,5.60
2018-12-03T14:23:46.186Z,5.20
2018-12-03T14:26:13.727Z,5.07
2018-12-03T14:28:40.608Z,5.23
2018-12-03T14:31:07.434Z,5.40
2018-12-03T14:33:34.962Z,5.40
2018-12-03T14:36:01.636Z,6.43
2018-12-03T14:38:28.679Z,6.37
2018-12-03T14:40:55.459Z,5.70
2018-12-03T14:43:22.182Z,4.90
2018-12-03T14:45:49.695Z,5.27
2018-12-03T14:48:16.437Z,5.07
2018-12-03T14:50:43.116Z,4.63
2018-12-03T14:53:09.807Z,4.97
2018-12-03T14:55:36.536Z,4.47
2018-12-03T14:58:03.264Z,4.63
2018-12-03T15:00:30.019Z,4.50
2018-12-03T15:02:57.002Z,4.40
2018-12-03T15:05:23.945Z,4.20
2018-12-03T15:07:51.436Z,4.63
2018-12-03T15:10:18.117Z,4.53
2018-12-03T15:12:44.857Z,3.90
2018-12-03T15:15:12.257Z,4.50
2018-12-03T15:17:39.036Z,4.30
2018-12-03T15:20:05.824Z,4.20
2018-12-03T15:22:34.655Z,3.80
2018-12-03T15:25:02.243Z,4.47
2018-12-03T15:27:30.391Z,3.90
2018-12-03T15:29:57.602Z,3.90
2018-12-03T15:32:24.479Z,4.00
2018-12-03T15:34:51.165Z,4.37
2018-12-03T15:37:19.544Z,4.00
2018-12-03T15:39:46.374Z,3.93
2018-12-03T15:42:13.311Z,4.00
2018-12-03T15:44:40.369Z,4.20
2018-12-03T15:47:07.160Z,4.93
2018-12-03T15:49:34.415Z,4.00
2018-12-03T15:52:01.429Z,4.07
2018-12-03T15:54:28.616Z,4.30
2018-12-03T15:56:56.030Z,5.10
2018-12-03T15:59:23.919Z,4.00
2018-12-03T16:01:51.490Z,4.20
2018-12-03T16:04:18.961Z,4.47
2018-12-03T16:06:45.650Z,5.27
2018-12-03T16:09:12.420Z,4.77
2018-12-03T16:11:39.927Z,4.07
2018-12-03T16:14:06.692Z,5.17
2018-12-03T16:16:34.278Z,5.03
2018-12-03T16:19:01.806Z,5.23
2018-12-03T16:21:28.651Z,5.20
2018-12-03T16:23:55.402Z,5.37
2018-12-03T16:26:22.132Z,4.70
2018-12-03T16:28:48.814Z,5.27
2018-12-03T16:31:16.297Z,4.70
2018-12-03T16:33:43.027Z,4.17
2018-12-03T16:36:09.741Z,4.97
2018-12-03T16:38:37.330Z,4.83
2018-12-03T16:41:04.860Z,4.80
2018-12-03T16:43:32.055Z,5.00
2018-12-03T16:45:59.092Z,5.50
2018-12-03T16:48:25.818Z,6.17
2018-12-03T16:50:52.626Z,5.13
2018-12-03T16:53:19.466Z,5.90
2018-12-03T16:55:46.524Z,8.13
2018-12-03T16:58:13.360Z,6.77
2018-12-03T17:00:40.159Z,5.90
2018-12-03T17:03:06.868Z,5.23
2018-12-03T17:05:33.571Z,6.23
2018-12-03T17:08:00.302Z,6.47
2018-12-03T17:10:27.033Z,5.33
2018-12-03T17:12:53.735Z,5.37
2018-12-03T17:15:20.463Z,5.30
2018-12-03T17:17:47.221Z,5.07
2018-12-03T17:20:20.973Z,5.07
2018-12-03T17:22:49.155Z,5.30
2018-12-03T17:25:16.663Z,4.60
2018-12-03T17:27:43.525Z,5.10
2018-12-03T17:30:10.342Z,5.20
2018-12-03T17:32:37.281Z,4.27
2018-12-03T17:35:05.861Z,5.27
2018-12-03T17:37:32.617Z,5.33
2018-12-03T17:39:59.480Z,4.80
2018-12-03T17:42:26.219Z,4.83
2018-12-03T17:44:52.950Z,4.67
2018-12-03T17:47:19.594Z,5.40
2018-12-03T17:49:46.316Z,5.60
2018-12-03T17:52:13.121Z,5.30
2018-12-03T17:54:39.785Z,5.33
2018-12-03T17:57:07.197Z,4.90
2018-12-03T17:59:34.303Z,4.43
2018-12-03T18:02:01.760Z,4.40
2018-12-03T18:04:28.440Z,4.50
2018-12-03T18:06:56.636Z,4.77
2018-12-03T18:09:23.407Z,4.43
2018-12-03T18:11:50.264Z,4.10
2018-12-03T18:14:16.960Z,4.07
2018-12-03T18:16:43.635Z,4.60
2018-12-03T18:19:10.427Z,4.47
2018-12-03T18:21:38.237Z,4.30
2018-12-03T18:24:05.278Z,4.03
2018-12-03T18:26:33.056Z,4.83
2018-12-03T18:28:59.809Z,5.33
2018-12-03T18:31:26.524Z,8.03
2018-12-03T18:33:53.714Z,9.13
2018-12-03T18:36:20.789Z,4.07
2018-12-03T18:38:48.745Z,4.03
2018-12-03T18:41:15.992Z,5.00
2018-12-03T18:43:44.151Z,4.83
2018-12-03T18:46:11.874Z,3.93
2018-12-03T18:48:50.286Z,3.20
2018-12-03T18:51:17.731Z,3.17
2018-12-03T18:53:44.584Z,3.23
2018-12-03T18:56:13.300Z,3.27
2018-12-03T18:58:40.267Z,2.83
2018-12-03T19:01:08.783Z,3.73
2018-12-03T19:03:35.842Z,3.67
2018-12-03T19:06:03.320Z,3.43
2018-12-03T19:08:30.328Z,4.73
2018-12-03T19:10:57.441Z,3.77
2018-12-03T19:13:24.353Z,3.50
2018-12-03T19:15:51.994Z,4.50
2018-12-03T19:18:19.162Z,3.27
2018-12-03T19:20:47.389Z,2.87
2018-12-03T19:23:14.540Z,3.30
2018-12-03T19:25:42.172Z,2.67
2018-12-03T19:28:09.941Z,4.07
2018-12-03T19:30:36.743Z,3.13
2018-12-03T19:33:04.971Z,2.63
2018-12-03T19:35:32.115Z,2.80
2018-12-03T19:37:58.914Z,2.57
2018-12-03T19:40:25.967Z,2.83
2018-12-03T19:42:53.802Z,2.93
2018-12-03T19:45:20.983Z,2.47
2018-12-03T19:47:48.596Z,2.30
2018-12-03T19:50:15.513Z,2.40
2018-12-03T19:52:42.522Z,2.40
2018-12-03T19:55:09.236Z,3.40
2018-12-03T19:57:39.999Z,3.33
2018-12-03T20:00:07.518Z,5.93
2018-12-03T20:02:34.269Z,6.63
2018-12-03T20:05:01.968Z,6.60
2018-12-03T20:07:28.685Z,3.07
2018-12-03T20:09:58.960Z,2.53
2018-12-03T20:12:25.736Z,2.40
2018-12-03T20:14:52.438Z,1.93
2018-12-03T20:17:19.239Z,2.30
2018-12-03T20:19:45.992Z,2.10
2018-12-03T20:22:12.663Z,2.10
2018-12-03T20:24:39.340Z,2.40
2018-12-03T20:27:07.041Z,2.23
2018-12-03T20:29:34.431Z,2.03
2018-12-03T20:32:01.138Z,1.90
2018-12-03T20:34:29.229Z,1.97
2018-12-03T20:36:56.592Z,2.03
2018-12-03T20:39:24.540Z,1.70
2018-12-03T20:41:51.608Z,1.50
2018-12-03T20:44:18.314Z,2.20
2018-12-03T20:46:45.761Z,1.60
2018-12-03T20:49:13.407Z,2.03
2018-12-03T20:51:40.271Z,1.80
2018-12-03T20:54:10.152Z,1.70
2018-12-03T20:56:38.622Z,1.73
2018-12-03T20:59:08.617Z,1.70
2018-12-03T21:01:35.557Z,2.23
2018-12-03T21:04:02.235Z,2.40
2018-12-03T21:06:28.896Z,1.90
2018-12-03T21:08:55.612Z,2.50
2018-12-03T21:11:22.266Z,2.47
2018-12-03T21:13:48.956Z,2.63
2018-12-03T21:16:15.641Z,3.03
2018-12-03T21:18:42.325Z,3.03
2018-12-03T21:21:09.036Z,2.47
2018-12-03T21:23:35.696Z,2.67
2018-12-03T21:26:03.422Z,2.90
2018-12-03T21:28:30.236Z,2.90
2018-12-03T21:30:56.991Z,3.00
2018-12-03T21:33:24.677Z,3.10
2018-12-03T21:35:53.983Z,2.80
2018-12-03T21:38:21.390Z,3.40
2018-12-03T21:40:48.219Z,4.93
2018-12-03T21:43:14.981Z,3.00
2018-12-03T21:45:41.693Z,3.07
2018-12-03T21:48:08.430Z,2.70
2018-12-03T21:50:35.179Z,2.87
2018-12-03T21:53:01.900Z,2.97
2018-12-03T21:55:29.335Z,2.97
2018-12-03T21:58:04.197Z,2.80
2018-12-03T22:00:31.670Z,3.20
2018-12-03T22:02:58.345Z,2.97
2018-12-03T22:05:25.839Z,3.37
2018-12-03T22:07:54.723Z,3.03
2018-12-03T22:10:22.154Z,2.73
2018-12-03T22:12:48.845Z,3.40
2018-12-03T22:15:15.497Z,3.57
2018-12-03T22:17:42.224Z,3.03
2018-12-03T22:20:09.116Z,3.30
2018-12-03T22:22:36.959Z,4.00
2018-12-03T22:25:06.734Z,3.70
2018-12-03T22:27:37.039Z,3.80
2018-12-03T22:30:03.757Z,3.90
2018-12-03T22:32:51.281Z,4.00
2018-12-03T22:35:24.902Z,3.90
2018-12-03T22:37:51.666Z,3.70
2018-12-03T22:40:18.910Z,3.73
2018-12-03T22:42:45.854Z,3.77
2018-12-03T22:45:12.912Z,3.53
2018-12-03T22:47:42.113Z,3.53
2018-12-03T22:50:09.327Z,3.23
2018-12-03T22:52:36.065Z,3.77
2018-12-03T22:55:02.764Z,3.80
2018-12-03T22:57:29.541Z,3.77
2018-12-03T22:59:56.244Z,3.20
2018-12-03T23:02:22.947Z,3.07
2018-12-03T23:04:49.671Z,3.90
2018-12-03T23:07:16.372Z,3.43
2018-12-03T23:09:43.021Z,3.23
2018-12-03T23:12:10.488Z,3.20
2018-12-03T23:14:37.207Z,3.67
2018-12-03T23:17:03.904Z,3.20
2018-12-03T23:19:31.348Z,4.10
2018-12-03T23:21:58.023Z,3.77
2018-12-03T23:24:25.453Z,3.47
2018-12-03T23:26:52.172Z,3.57
2018-12-03T23:29:18.873Z,4.33
2018-12-03T23:31:45.546Z,3.53
2018-12-03T23:34:12.287Z,3.67
2018-12-03T23:36:38.938Z,3.83
2018-12-03T23:39:05.697Z,4.10
2018-12-03T23:41:35.427Z,3.87
2018-12-03T23:44:02.125Z,3.90
2018-12-03T23:46:28.841Z,4.10
2018-12-03T23:48:55.557Z,3.80
2018-12-03T23:51:22.243Z,4.07
2018-12-03T23:53:49.739Z,3.80
2018-12-03T23:56:16.510Z,3.33
2018-12-03T23:58:43.174Z,3.80
